CCGS Louis S. St-Laurent — CGBN — position and weather

sailwx.info

Track history (hours):
 
Tides and Currents Weather Stations Pressure Air Temp Water Temp Dewpoint Dewpoint Depression Visibility Wind Speed Wind Dir Waves Ship Positions

Oceanographic research ship CCGS Louis S. St-Laurent (Canada)

Detailed information on ship capabilities available from ARCUS's ALIAS (Arctic Logistics Information and Support) project.

Last reported at 2017-Oct-18 23:00 UTC. Time now 2017-Oct-19 00:17 UTC.
Position N 71°00' W 067°54'.

Length 119.63 m; beam 24.38 m; draft 9.9 m.

MMSI: 316165000.

Wind from 310 at 12 knots

Barometer 1005.9 mb
Air temperature -2.9 ° C
Dewpoint -5.9 ° C

Date/timePositionNaut miles runAvg speedWind from/ knotsBaromVisibWave heightAir tempDewpointWater temp
2017-Oct-18 23:00N 71°00' W 067°54'1111.4 310 / 121005.9 -2.9-5.9
2017-Oct-18 22:00N 71°06' W 068°24'1515.4 310 / 211006.0 -3.7-6.8
2017-Oct-18 21:00N 71°18' W 068°54'1111.3 310 / 211006.2 -4.1-7.8
2017-Oct-18 20:00N 71°24' W 069°24'1111.3 310 / 191006.3 -4.5-7.9
2017-Oct-18 19:00N 71°30' W 069°54'1716.5 310 / 171006.3 -4.3-7.3
2017-Oct-18 18:00N 71°42' W 070°30'2110.3 310 / 141006.4 -4.1-7.7
2017-Oct-18 16:00N 71°54' W 071°24'8 8.2 300 / 81006.5 -4.9-8.0
2017-Oct-18 15:00N 72°00' W 071°42'7 7.0 320 / 111006.6 -5.0-8.7
2017-Oct-18 14:00N 72°06' W 071°54'4 3.7 310 / 71006.5 -5.3-8.5
2017-Oct-18 13:00N 72°06' W 072°06'7 7.0 290 / 31006.4 -5.9-8.7
2017-Oct-18 12:00N 72°12' W 072°18'6 5.5 360 / 181006.5 -5.8-8.5
2017-Oct-18 11:00N 72°12' W 072°36'8 8.1 300 / 91006.5 -5.4-8.0
2017-Oct-18 10:00N 72°18' W 072°54'8 8.1 300 / 81006.4 -5.5-8.7
2017-Oct-18 09:00N 72°24' W 073°12'9 9.4 280 / 91006.3 -5.6-8.9
2017-Oct-18 08:00N 72°30' W 073°36'5 5.4 300 / 91006.1 -5.9-9.0
2017-Oct-18 07:00N 72°30' W 073°54'1110.8 280 / 91005.9 -6.3-9.8
2017-Oct-18 06:00N 72°36' W 074°24'5 5.4 300 / 91005.7 -6.6-9.6
2017-Oct-18 05:00N 72°36' W 074°42'1110.8 320 / 191005.7 -7.4-10.4
2017-Oct-18 04:00N 72°42' W 075°12'5 5.4 330 / 141005.6 -7.1-11.0
2017-Oct-18 03:00N 72°42' W 075°30'7 7.1 320 / 101005.9 -6.2-10.7
2017-Oct-18 02:00N 72°42' W 075°54'1110.7 340 / 161006.0 -6.3-11.3
2017-Oct-18 01:00N 72°48' W 076°24'9 8.9 310 / 101006.3 -5.2-11.7
2017-Oct-18 00:00N 72°48' W 076°54'5 5.3 280 / 71006.7 -4.4-10.2
2017-Oct-17 23:00N 72°48' W 077°12'5 5.3 250 / 51006.9 -5.0-10.7
2017-Oct-17 22:00N 72°48' W 077°30'7 7.1 240 / 61007.1 -5.4-11.4
2017-Oct-17 21:00N 72°48' W 077°54'1110.7 210 / 81007.3 -5.5-8.5
2017-Oct-17 20:00N 72°42' W 078°24'7 7.1 230 / 21007.6 -6.0-8.6
2017-Oct-17 19:00N 72°42' W 078°48'7 7.1 120 / 21007.7 -5.8-9.4
2017-Oct-17 18:00N 72°42' W 079°12'1110.8 340 / 61007.8 -6.2-8.8
2017-Oct-17 17:00N 72°36' W 079°42'7 7.2 330 / 141007.7 -6.6-9.3
2017-Oct-17 16:00N 72°36' W 080°06'6 6.3 330 / 221008.0 -7.6-9.8
2017-Oct-17 15:00N 72°30' W 080°12'6 6.3 320 / 231008.1 -7.6-9.8
2017-Oct-17 14:00N 72°24' W 080°18'7 7.0 350 / 151008.5 -7.4-9.9
2017-Oct-17 13:00N 72°18' W 080°30'6 6.0 360 / 101008.7 -7.3-9.2
2017-Oct-17 12:00N 72°12' W 080°30'1212.1 340 / 71009.0 -7.6-9.7
2017-Oct-17 11:00N 72°00' W 080°36'7 7.1 310 / 41009.2 -8.9-11.0
2017-Oct-17 10:00N 71°54' W 080°48'2 1.9 180 / 51009.4 -10.8-12.9
2017-Oct-17 09:00N 71°54' W 080°54'0 0.0 270 / 31009.4 -11.3-13.5
2017-Oct-17 08:00N 71°54' W 080°54'0 0.0 300 / 51009.3 -11.2-13.4
2017-Oct-17 07:00N 71°54' W 080°54'0 0.0 250 / 51009.1 -11.7-13.8
2017-Oct-17 06:00N 71°54' W 080°54'0 0.0 300 / 41009.0 -11.6-13.9
2017-Oct-17 05:00N 71°54' W 080°54'2 1.9 280 / 41008.6 -11.7-13.8
2017-Oct-17 04:00N 71°54' W 080°48'1313.2 160 / 71008.2 -11.0-12.9
2017-Oct-17 03:00N 72°06' W 080°30'6 6.0 200 / 91007.9 -9.0-10.3
2017-Oct-17 02:00N 72°12' W 080°30'1212.1 140 / 81007.9 -7.0-8.5
2017-Oct-17 01:00N 72°24' W 080°24'7 7.0 100 / 51008.0 -7.3-8.8
2017-Oct-17 00:00N 72°30' W 080°12'8 8.1 330 / 31008.0 -7.6-9.7
2017-Oct-16 23:00N 72°36' W 079°54'7 7.2 300 / 51007.5 -6.8-8.6
2017-Oct-16 22:00N 72°36' W 079°30'8 8.1 320 / 91007.4 -6.6-7.7
2017-Oct-16 21:00N 72°42' W 079°12'7 7.1 290 / 101007.2 -6.1-7.5
2017-Oct-16 20:00N 72°42' W 078°48'1212.1 200 / 51007.1 -6.4-7.7
2017-Oct-16 19:00N 72°30' W 078°42'2 1.8 270 / 71007.0 -6.5-7.8
2017-Oct-16 18:00N 72°30' W 078°48'2 1.8 300 / 51006.8 -6.6-7.8
2017-Oct-16 17:00N 72°30' W 078°42'0 0.0 300 / 61006.6 -6.8-7.8
2017-Oct-16 16:00N 72°30' W 078°42'2 1.8 290 / 51006.6 -6.3-7.5
2017-Oct-16 15:00N 72°30' W 078°48'0 0.0 260 / 41006.5 -6.4-7.6
2017-Oct-16 14:00N 72°30' W 078°48'6 6.0 120 / 51006.5 -6.4-8.6
2017-Oct-16 13:00N 72°36' W 078°48'2 1.8 150 / 41006.5 -6.4-8.2
2017-Oct-16 12:00N 72°36' W 078°42'5 5.4 160 / 31006.5 -6.6-7.9
2017-Oct-16 11:00N 72°36' W 078°24'9 9.3 120 / 101006.5 -6.8-9.5
2017-Oct-16 10:00N 72°42' W 078°00'2 0.9 210 / 61006.5 -5.8-7.0
2017-Oct-16 08:00N 72°42' W 077°54'6 6.3 180 / 41006.4 -5.8-7.2
2017-Oct-16 07:00N 72°48' W 077°48'7 7.1 060 / 161006.2 -5.5-7.1
2017-Oct-16 06:00N 72°48' W 078°12'9 9.3 340 / 21006.7 -6.5-7.6
2017-Oct-16 05:00N 72°42' W 078°36'5 5.4 070 / 51006.5 -6.3-7.6
2017-Oct-16 04:00N 72°42' W 078°54'9 8.9 130 / 31006.6 -6.4-7.7
2017-Oct-16 03:00N 72°42' W 079°24'7 7.1 130 / 51006.7 -6.1-8.0
2017-Oct-16 02:00N 72°42' W 079°48'8 8.1 330 / 91006.8 -7.5-8.9
2017-Oct-16 01:00N 72°36' W 080°06'7 7.0 330 / 191006.9 -8.1-9.9
2017-Oct-16 00:00N 72°30' W 080°18'0 0.0 350 / 131007.5 -8.1-10.1
2017-Oct-15 23:00N 72°30' W 080°18'0 0.0 330 / 91007.6 -8.0-10.2
2017-Oct-15 22:00N 72°30' W 080°18'9 9.4 330 / 61007.8 -7.8-9.8
2017-Oct-15 21:00N 72°36' W 079°54'9 9.0 350 / 121007.3 -8.1-10.1
2017-Oct-15 20:00N 72°36' W 079°24'9 9.0 320 / 141007.0 -8.0-9.6
2017-Oct-15 19:00N 72°36' W 078°54'6 6.3 280 / 41006.8 -6.6-8.9
2017-Oct-15 18:00N 72°30' W 078°48'0 0.0 290 / 101006.6 -6.7-8.6
2017-Oct-15 17:00N 72°30' W 078°48'6 6.0 320 / 81006.5 -6.3-8.1
2017-Oct-15 16:00N 72°36' W 078°48'6 6.0 280 / 101006.5 -6.2-8.7
2017-Oct-15 15:00N 72°42' W 078°48'6 6.0 270 / 91006.3 -5.9-8.7
2017-Oct-15 14:00N 72°36' W 078°48'6 6.3 280 / 111006.1 -6.1-8.8
2017-Oct-15 13:00N 72°30' W 078°54'9 4.7 280 / 61006.3 -6.1-8.6
2017-Oct-15 11:00N 72°36' W 078°30'7 7.0 280 / 81005.6 -6.0-8.3
2017-Oct-15 10:00N 72°42' W 078°18'4 3.6 220 / 161005.4 -5.3-7.3
2017-Oct-15 09:00N 72°42' W 078°06'0 0.0 180 / 101005.6 -5.5-7.5
2017-Oct-15 08:00N 72°42' W 078°06'0 0.0 190 / 81005.4 -5.3-7.1
2017-Oct-15 07:00N 72°42' W 078°06'2 1.8 190 / 61005.1 -4.9-6.7
2017-Oct-15 06:00N 72°42' W 078°12'0 0.0 170 / 81005.0 -5.5-7.0
2017-Oct-15 05:00N 72°42' W 078°12'0 0.0 180 / 91004.6 -5.4-7.2
2017-Oct-15 04:00N 72°42' W 078°12'2 1.8 220 / 61004.7 -4.1-6.9
2017-Oct-15 03:00N 72°42' W 078°18'0 0.0 130 / 81004.7 -5.1-7.0
2017-Oct-15 02:00N 72°42' W 078°18'0 0.0 170 / 71004.7 -4.8-7.3
2017-Oct-15 01:00N 72°42' W 078°18'0 0.0 160 / 71004.9 -5.0-8.0
2017-Oct-15 00:00N 72°42' W 078°18'0 0.0 130 / 101004.9 -5.5-9.1
2017-Oct-14 23:00N 72°42' W 078°18'4 3.6 230 / 41005.0 -4.6-8.1
2017-Oct-14 22:00N 72°42' W 078°30'5 5.4 070 / 31005.0 -4.7-8.0
2017-Oct-14 21:00N 72°42' W 078°48'9 9.3 070 / 91005.2 -3.8-7.5
2017-Oct-14 20:00N 72°48' W 078°24'9 8.9 070 / 101005.3 -2.8-6.7
2017-Oct-14 19:00N 72°48' W 077°54'2 1.8 070 / 131005.5 -3.8-6.9
2017-Oct-14 18:00N 72°48' W 077°48'6 6.3 080 / 151005.1 -4.6-7.8
2017-Oct-14 17:00N 72°42' W 077°54'6 6.3 190 / 51005.2 -4.8-8.8
2017-Oct-14 16:00N 72°48' W 077°48'0 0.0 100 / 171005.1 -4.7-7.6
2017-Oct-14 15:00N 72°48' W 077°48'0 0.0 070 / 191005.3 -5.0-7.7
2017-Oct-14 14:00N 72°48' W 077°48'7 7.1 080 / 191005.8 -4.9-8.1
2017-Oct-14 13:00N 72°48' W 077°24'0 0.0 090 / 171006.0 -5.2-8.5
2017-Oct-14 12:00N 72°48' W 077°24'2 1.8 070 / 211005.4 -5.4-8.6
2017-Oct-14 11:00N 72°48' W 077°30'4 3.5 080 / 141005.9 -5.1-8.8
2017-Oct-14 10:00N 72°48' W 077°42'4 3.5 070 / 201005.6 -5.5-9.0
2017-Oct-14 09:00N 72°48' W 077°54'7 7.0 060 / 171006.5 -5.3-8.8
2017-Oct-14 08:00N 72°42' W 078°06'0 0.0 1006.8 -7.0-10.6
2017-Oct-14 07:00N 72°42' W 078°06'0 0.0 150 / 81006.9 -7.2-10.3
2017-Oct-14 05:00N 72°42' W 078°06'2 1.8 360 / 11007.1 -4.6-9.0
2017-Oct-14 04:00N 72°42' W 078°12'0 0.0 110 / 31007.5 -6.3-9.0
2017-Oct-14 03:00N 72°42' W 078°12'0 0.0 120 / 11007.6 -5.8-8.2
2017-Oct-14 02:00N 72°42' W 078°12'0 0.0 110 / 41007.9 -6.0-8.4
2017-Oct-14 01:00N 72°42' W 078°12'0 0.0 030 / 31008.1 -5.7-8.4
2017-Oct-14 00:00N 72°42' W 078°12'8 8.1 070 / 51008.3 -6.0-7.7
2017-Oct-13 23:00N 72°36' W 078°30'2 1.8 060 / 71008.3 -6.3-8.2
2017-Oct-13 22:00N 72°36' W 078°36'5 5.4 030 / 71008.6 -5.9-8.1
2017-Oct-13 21:00N 72°36' W 078°54'6 6.0 290 / 71008.7 -6.2-8.3
2017-Oct-13 20:00N 72°30' W 078°54'6 6.0 320 / 71008.9 -5.9-8.0
2017-Oct-13 19:00N 72°36' W 078°54'6 6.0 290 / 61009.1 -6.2-7.3
2017-Oct-13 18:00N 72°42' W 078°54'6 6.0 080 / 11009.4 -4.6-6.6
2017-Oct-13 17:00N 72°36' W 078°54'6 6.0 120 / 51009.6 -6.1-7.4
2017-Oct-13 16:00N 72°30' W 078°54'0 0.0 110 / 71010.0 -5.7-7.4
2017-Oct-13 15:00N 72°30' W 078°54'1212.1 110 / 61010.2 -6.4-8.0
2017-Oct-13 14:00N 72°42' W 079°00'1110.7 080 / 101010.8 -6.7-8.1
2017-Oct-13 13:00N 72°42' W 078°24'1110.7 080 / 41011.3 -7.2-9.3
2017-Oct-13 12:00N 72°48' W 077°54'6 6.3 290 / 51011.6 -6.5-8.5
2017-Oct-13 11:00N 72°42' W 078°00'0 0.0 220 / 31012.0 -6.9-9.2
2017-Oct-13 10:00N 72°42' W 078°00'2 1.8 170 / 21012.3 -7.0-9.3
2017-Oct-13 09:00N 72°42' W 078°06'6 6.3 140 / 11012.8 -7.0-9.2
2017-Oct-13 08:00N 72°48' W 078°00'2 1.8 190 / 31013.0 -7.2-9.0
2017-Oct-13 07:00N 72°48' W 077°54'0 0.0 250 / 31013.3 -7.0-8.9
2017-Oct-13 06:00N 72°48' W 077°54'0 0.0 250 / 31013.5 -7.1-9.1
2017-Oct-13 05:00N 72°48' W 077°54'0 0.0 240 / 41013.9 -7.3-9.4
2017-Oct-13 04:00N 72°48' W 077°54'2 1.8 230 / 61014.0 -7.3-9.3
2017-Oct-13 03:00N 72°48' W 077°48'6 6.3 260 / 81014.4 -7.0-9.8
2017-Oct-13 02:00N 72°42' W 077°54'6 6.3 270 / 21014.8 -6.9-10.1
2017-Oct-13 01:00N 72°48' W 077°48'0 0.0 200 / 41015.2 -7.4-10.1
2017-Oct-13 00:00N 72°48' W 077°48'2 1.8 150 / 71015.3 -7.6-10.0
2017-Oct-12 23:00N 72°48' W 077°42'7 7.1 250 / 111015.2 -7.5-9.7
2017-Oct-12 22:00N 72°48' W 077°18'4 3.5 290 / 111016.0 -6.9-9.2
2017-Oct-12 21:00N 72°48' W 077°30'4 3.5 250 / 81016.2 -7.1-9.1
2017-Oct-12 20:00N 72°48' W 077°42'8 8.0 270 / 61016.5 -7.5-9.3
2017-Oct-12 19:00N 72°42' W 078°00'2 1.8 150 / 101016.7 -8.1-10.8
2017-Oct-12 18:00N 72°42' W 077°54'2 1.8 150 / 81016.7 -8.0-10.8
2017-Oct-12 17:00N 72°42' W 078°00'2 1.8 180 / 31017.0 -7.3-10.1
2017-Oct-12 16:00N 72°42' W 078°06'0 0.0 230 / 11017.1 -7.6-9.8
2017-Oct-12 15:00N 72°42' W 078°06'0 0.0 130 / 71017.2 -8.1-10.7
2017-Oct-12 14:00N 72°42' W 078°06'6 6.3 140 / 161017.0 -7.9-10.9
2017-Oct-12 13:00N 72°48' W 078°00'2 1.8 350 / 31017.1 -7.4-9.7
2017-Oct-12 12:00N 72°48' W 078°06'6 6.0 230 / 11017.1 -6.6-9.7
2017-Oct-12 11:00N 72°42' W 078°06'6 6.3 260 / 11017.2 -6.3-9.4
2017-Oct-12 10:00N 72°48' W 078°00'2 1.8 310 / 81017.1 -7.4-10.2
2017-Oct-12 09:00N 72°48' W 077°54'0 0.0 300 / 71017.1 -7.1-9.9
2017-Oct-12 07:00N 72°48' W 077°54'0 0.0 270 / 91016.6 -7.5-9.3
2017-Oct-12 06:00N 72°48' W 077°54'2 1.8 300 / 91016.4 -7.2-9.3
2017-Oct-12 05:00N 72°48' W 078°00'0 0.0 300 / 91016.2 -7.3-9.3
2017-Oct-12 04:00N 72°48' W 078°00'6 6.3 310 / 101016.0 -7.2-9.0
2017-Oct-12 03:00N 72°42' W 078°06'0 0.0 320 / 71015.9 -7.0-9.5
2017-Oct-12 02:00N 72°42' W 078°06'7 7.1 260 / 31015.8 -6.4-9.3
2017-Oct-12 01:00N 72°42' W 078°30'1212.5 310 / 101015.6 -6.7-9.3
2017-Oct-12 00:00N 72°42' W 079°12'1413.8 340 / 161015.4 -7.9-10.1
2017-Oct-11 23:00N 72°48' W 079°54'8 8.0 010 / 101015.6 -9.3-10.6
2017-Oct-11 22:00N 72°54' W 080°12'1312.5 300 / 111015.3 -9.0-11.3
2017-Oct-11 21:00N 73°06' W 080°24'8 8.0 100 / 111014.8 -7.4-10.3
2017-Oct-11 20:00N 73°12' W 080°42'1212.5 070 / 71014.5 -6.8-9.6
2017-Oct-11 19:00N 73°24' W 080°54'1212.1 160 / 91014.1 -6.5-9.3
2017-Oct-11 18:00N 73°36' W 081°00'6 6.2 100 / 81014.0 -6.4-8.8
2017-Oct-11 17:00N 73°42' W 081°06'7 6.9 280 / 111013.5 -5.4-8.5
2017-Oct-11 16:00N 73°48' W 081°18'9 9.0 260 / 121013.5 -5.1-8.0
2017-Oct-11 15:00N 73°54' W 081°42'1010.0 270 / 101013.4 -3.5-7.6
2017-Oct-11 14:00N 73°54' W 082°18'3 3.3 270 / 131013.0 -5.4-8.4
2017-Oct-11 13:00N 73°54' W 082°30'8 8.3 270 / 131013.1 -5.3-8.0
2017-Oct-11 12:00N 73°54' W 083°00'8 8.3 260 / 131013.0 -5.0-7.8
2017-Oct-11 11:00N 73°54' W 083°30'7 6.7 260 / 101012.8 -5.1-8.7
2017-Oct-11 10:00N 73°54' W 083°54'1010.0 290 / 31012.8 -5.5-7.5
2017-Oct-11 09:00N 73°54' W 084°30'8 8.3 270 / 51012.8 -6.1-9.0
2017-Oct-11 08:00N 73°54' W 085°00'8 8.3 230 / 51012.5 -6.2-8.6
2017-Oct-11 07:00N 73°54' W 085°30'7 6.7 260 / 81012.4 -5.8-7.6
2017-Oct-11 06:00N 73°54' W 085°54'7 6.7 240 / 101012.2 -6.0-7.9
2017-Oct-11 05:00N 73°54' W 086°18'7 6.7 240 / 101012.1 -5.9-7.6
2017-Oct-11 04:00N 73°54' W 086°42'12 5.8 220 / 111012.1 -6.2-8.2
2017-Oct-11 02:00N 73°54' W 087°24'8 7.8 230 / 101011.9 -5.8-7.8
2017-Oct-11 01:00N 73°48' W 087°42'2 1.7 210 / 101011.8 -5.9-7.8
2017-Oct-11 00:00N 73°48' W 087°48'7 6.7 200 / 121011.6 -5.6-7.4
2017-Oct-10 23:00N 73°48' W 088°12'1010.3 210 / 141011.5 -5.6-7.1
2017-Oct-10 22:00N 73°42' W 088°42'8 7.9 210 / 161011.3 -5.4-6.4
2017-Oct-10 21:00N 73°36' W 089°00'6 6.0 200 / 131011.2 -4.8-6.4
2017-Oct-10 20:00N 73°30' W 089°00'9 9.1 210 / 161011.2 -5.0-6.2
2017-Oct-10 19:00N 73°24' W 089°24'1413.8 210 / 111011.1 -4.6-6.4
2017-Oct-10 18:00N 73°12' W 089°48'6 6.2 200 / 91011.0 -3.9-6.2
2017-Oct-10 17:00N 73°06' W 089°54'1312.5 210 / 101011.2 -4.6-6.8
2017-Oct-10 16:00N 72°54' W 090°06'6 6.3 200 / 101011.3 -3.5-7.3
2017-Oct-10 15:00N 72°48' W 090°12'6 6.3 220 / 111011.3 -4.4-7.6
2017-Oct-10 14:00N 72°42' W 090°18'7 7.0 210 / 101011.1 -4.9-7.5
2017-Oct-10 13:00N 72°36' W 090°30'9 9.4 250 / 81011.4 -5.1-7.3
2017-Oct-10 12:00N 72°30' W 090°54'7 7.0 230 / 81011.4 -4.8-7.3
2017-Oct-10 11:00N 72°24' W 091°06'8 8.1 220 / 81011.5 -4.6-7.0
2017-Oct-10 10:00N 72°18' W 091°24'7 7.0 220 / 81011.7 -4.2-6.9
2017-Oct-10 09:00N 72°12' W 091°36'7 7.0 210 / 81011.8 -3.2-6.3
2017-Oct-10 08:00N 72°06' W 091°48'8 8.2 210 / 91012.1 -4.2-6.7
2017-Oct-10 07:00N 72°00' W 092°06'10 9.6 240 / 101012.1 -5.0-6.9
2017-Oct-10 06:00N 71°54' W 092°30'7 7.5 230 / 81012.0 -5.2-7.1
2017-Oct-10 05:00N 71°54' W 092°54'7 7.5 240 / 101012.0 -5.2-7.0
2017-Oct-10 04:00N 71°54' W 093°18'7 7.5 250 / 91012.1 -5.1-7.0
2017-Oct-10 03:00N 71°54' W 093°42'4 3.7 230 / 91012.2 -4.6-6.6
2017-Oct-10 02:00N 71°54' W 093°54'7 7.5 240 / 111012.2 -4.9-6.7
2017-Oct-10 01:00N 71°54' W 094°18'7 7.1 230 / 101012.2 -5.3-6.7
2017-Oct-10 00:00N 72°00' W 094°30'4 3.7 240 / 71012.2 -5.5-6.8
2017-Oct-09 23:00N 72°00' W 094°42'7 7.1 240 / 51012.4 -4.9-5.9
2017-Oct-09 22:00N 71°54' W 094°54'4 3.7 250 / 91012.3 -4.8-5.8
2017-Oct-09 21:00N 71°54' W 095°06'2 1.9 220 / 21012.3 -4.1-6.2
2017-Oct-09 20:00N 71°54' W 095°12'0 0.0 250 / 41012.2 -4.6-5.9
2017-Oct-09 19:00N 71°54' W 095°12'1111.2 240 / 101012.2 -4.7-6.1
2017-Oct-09 18:00N 71°54' W 095°48'7 7.1 240 / 101012.0 -4.7-6.0
2017-Oct-09 17:00N 71°48' W 096°00'0 0.0 140 / 41012.0 -4.7-5.9
2017-Oct-09 16:00N 71°48' W 096°00'2 1.9 250 / 31012.0 -4.7-5.5
2017-Oct-09 15:00N 71°48' W 096°06'0 0.0 250 / 21011.9 -3.0-4.7
2017-Oct-09 14:00N 71°48' W 096°06'8 8.2 230 / 91011.9 -3.7-4.5
2017-Oct-09 13:00N 71°42' W 096°24'1414.2 220 / 101012.0 -4.8-5.3
2017-Oct-09 12:00N 71°30' W 096°48'8 8.3 220 / 81012.2 -4.3-4.9
2017-Oct-09 11:00N 71°24' W 097°06'1515.4 220 / 121012.3 -5.1-5.6
2017-Oct-09 10:00N 71°12' W 097°36'8 8.4 220 / 141012.5 -5.2-5.8
2017-Oct-09 09:00N 71°06' W 097°54'7 7.2 250 / 11012.4 -4.6-5.2
2017-Oct-09 08:00N 71°00' W 098°06'7 7.2 210 / 101012.5 -4.9-5.4
2017-Oct-09 07:00N 70°54' W 098°18'1312.6 210 / 101012.5 -4.8-5.2
2017-Oct-09 06:00N 70°42' W 098°30'1313.4 210 / 91012.7 -4.8-5.3
2017-Oct-09 05:00N 70°30' W 098°48'7 7.2 210 / 101012.8 -4.9-5.3
2017-Oct-09 04:00N 70°24' W 099°00'9 8.5 210 / 91012.9 -4.8-5.3
2017-Oct-09 03:00N 70°18' W 099°18'1212.0 210 / 91012.9 -4.8-5.3
2017-Oct-09 02:00N 70°06' W 099°18'1212.0 190 / 91013.1 -4.9-5.3
2017-Oct-09 01:00N 69°54' W 099°18'2 2.1 260 / 31013.3 -4.6-5.1
2017-Oct-09 00:00N 69°54' W 099°24'6 6.3 200 / 91013.7 -5.0-5.5
2017-Oct-08 23:00N 69°48' W 099°30'   210 / 61013.8 -5.2-5.8
Track history (hours):
 
Tides and Currents Weather Stations Pressure Air Temp Water Temp Dewpoint Dewpoint Depression Visibility Wind Speed Wind Dir Waves Ship Positions

Oceanographic research ship CCGS Louis S. St-Laurent (Canada)

Detailed information on ship capabilities available from ARCUS's ALIAS (Arctic Logistics Information and Support) project.

Last reported at 2017-Oct-18 23:00 UTC. Time now 2017-Oct-19 00:17 UTC.
Position N 71°00' W 067°54'.

Length 119.63 m; beam 24.38 m; draft 9.9 m.

MMSI: 316165000.

Wind from 310 at 12 knots

Barometer 1005.9 mb
Air temperature -2.9 ° C
Dewpoint -5.9 ° C

Date/timePositionNaut miles runAvg speedWind from/ knotsBaromVisibWave heightAir tempDewpointWater temp
2017-Oct-18 23:00N 71°00' W 067°54'1111.4 310 / 121005.9 -2.9-5.9
2017-Oct-18 22:00N 71°06' W 068°24'1515.4 310 / 211006.0 -3.7-6.8
2017-Oct-18 21:00N 71°18' W 068°54'1111.3 310 / 211006.2 -4.1-7.8
2017-Oct-18 20:00N 71°24' W 069°24'1111.3 310 / 191006.3 -4.5-7.9
2017-Oct-18 19:00N 71°30' W 069°54'1716.5 310 / 171006.3 -4.3-7.3
2017-Oct-18 18:00N 71°42' W 070°30'2110.3 310 / 141006.4 -4.1-7.7
2017-Oct-18 16:00N 71°54' W 071°24'8 8.2 300 / 81006.5 -4.9-8.0
2017-Oct-18 15:00N 72°00' W 071°42'7 7.0 320 / 111006.6 -5.0-8.7
2017-Oct-18 14:00N 72°06' W 071°54'4 3.7 310 / 71006.5 -5.3-8.5
2017-Oct-18 13:00N 72°06' W 072°06'7 7.0 290 / 31006.4 -5.9-8.7
2017-Oct-18 12:00N 72°12' W 072°18'6 5.5 360 / 181006.5 -5.8-8.5
2017-Oct-18 11:00N 72°12' W 072°36'8 8.1 300 / 91006.5 -5.4-8.0
2017-Oct-18 10:00N 72°18' W 072°54'8 8.1 300 / 81006.4 -5.5-8.7
2017-Oct-18 09:00N 72°24' W 073°12'9 9.4 280 / 91006.3 -5.6-8.9
2017-Oct-18 08:00N 72°30' W 073°36'5 5.4 300 / 91006.1 -5.9-9.0
2017-Oct-18 07:00N 72°30' W 073°54'1110.8 280 / 91005.9 -6.3-9.8
2017-Oct-18 06:00N 72°36' W 074°24'5 5.4 300 / 91005.7 -6.6-9.6
2017-Oct-18 05:00N 72°36' W 074°42'1110.8 320 / 191005.7 -7.4-10.4
2017-Oct-18 04:00N 72°42' W 075°12'5 5.4 330 / 141005.6 -7.1-11.0
2017-Oct-18 03:00N 72°42' W 075°30'7 7.1 320 / 101005.9 -6.2-10.7
2017-Oct-18 02:00N 72°42' W 075°54'1110.7 340 / 161006.0 -6.3-11.3
2017-Oct-18 01:00N 72°48' W 076°24'9 8.9 310 / 101006.3 -5.2-11.7
2017-Oct-18 00:00N 72°48' W 076°54'5 5.3 280 / 71006.7 -4.4-10.2
2017-Oct-17 23:00N 72°48' W 077°12'5 5.3 250 / 51006.9 -5.0-10.7
2017-Oct-17 22:00N 72°48' W 077°30'7 7.1 240 / 61007.1 -5.4-11.4
2017-Oct-17 21:00N 72°48' W 077°54'1110.7 210 / 81007.3 -5.5-8.5
2017-Oct-17 20:00N 72°42' W 078°24'7 7.1 230 / 21007.6 -6.0-8.6
2017-Oct-17 19:00N 72°42' W 078°48'7 7.1 120 / 21007.7 -5.8-9.4
2017-Oct-17 18:00N 72°42' W 079°12'1110.8 340 / 61007.8 -6.2-8.8
2017-Oct-17 17:00N 72°36' W 079°42'7 7.2 330 / 141007.7 -6.6-9.3
2017-Oct-17 16:00N 72°36' W 080°06'6 6.3 330 / 221008.0 -7.6-9.8
2017-Oct-17 15:00N 72°30' W 080°12'6 6.3 320 / 231008.1 -7.6-9.8
2017-Oct-17 14:00N 72°24' W 080°18'7 7.0 350 / 151008.5 -7.4-9.9
2017-Oct-17 13:00N 72°18' W 080°30'6 6.0 360 / 101008.7 -7.3-9.2
2017-Oct-17 12:00N 72°12' W 080°30'1212.1 340 / 71009.0 -7.6-9.7
2017-Oct-17 11:00N 72°00' W 080°36'7 7.1 310 / 41009.2 -8.9-11.0
2017-Oct-17 10:00N 71°54' W 080°48'2 1.9 180 / 51009.4 -10.8-12.9
2017-Oct-17 09:00N 71°54' W 080°54'0 0.0 270 / 31009.4 -11.3-13.5
2017-Oct-17 08:00N 71°54' W 080°54'0 0.0 300 / 51009.3 -11.2-13.4
2017-Oct-17 07:00N 71°54' W 080°54'0 0.0 250 / 51009.1 -11.7-13.8
2017-Oct-17 06:00N 71°54' W 080°54'0 0.0 300 / 41009.0 -11.6-13.9
2017-Oct-17 05:00N 71°54' W 080°54'2 1.9 280 / 41008.6 -11.7-13.8
2017-Oct-17 04:00N 71°54' W 080°48'1313.2 160 / 71008.2 -11.0-12.9
2017-Oct-17 03:00N 72°06' W 080°30'6 6.0 200 / 91007.9 -9.0-10.3
2017-Oct-17 02:00N 72°12' W 080°30'1212.1 140 / 81007.9 -7.0-8.5
2017-Oct-17 01:00N 72°24' W 080°24'7 7.0 100 / 51008.0 -7.3-8.8
2017-Oct-17 00:00N 72°30' W 080°12'8 8.1 330 / 31008.0 -7.6-9.7
2017-Oct-16 23:00N 72°36' W 079°54'7 7.2 300 / 51007.5 -6.8-8.6
2017-Oct-16 22:00N 72°36' W 079°30'8 8.1 320 / 91007.4 -6.6-7.7
2017-Oct-16 21:00N 72°42' W 079°12'7 7.1 290 / 101007.2 -6.1-7.5
2017-Oct-16 20:00N 72°42' W 078°48'1212.1 200 / 51007.1 -6.4-7.7
2017-Oct-16 19:00N 72°30' W 078°42'2 1.8 270 / 71007.0 -6.5-7.8
2017-Oct-16 18:00N 72°30' W 078°48'2 1.8 300 / 51006.8 -6.6-7.8
2017-Oct-16 17:00N 72°30' W 078°42'0 0.0 300 / 61006.6 -6.8-7.8
2017-Oct-16 16:00N 72°30' W 078°42'2 1.8 290 / 51006.6 -6.3-7.5
2017-Oct-16 15:00N 72°30' W 078°48'0 0.0 260 / 41006.5 -6.4-7.6
2017-Oct-16 14:00N 72°30' W 078°48'6 6.0 120 / 51006.5 -6.4-8.6
2017-Oct-16 13:00N 72°36' W 078°48'2 1.8 150 / 41006.5 -6.4-8.2
2017-Oct-16 12:00N 72°36' W 078°42'5 5.4 160 / 31006.5 -6.6-7.9
2017-Oct-16 11:00N 72°36' W 078°24'9 9.3 120 / 101006.5 -6.8-9.5
2017-Oct-16 10:00N 72°42' W 078°00'2 0.9 210 / 61006.5 -5.8-7.0
2017-Oct-16 08:00N 72°42' W 077°54'6 6.3 180 / 41006.4 -5.8-7.2
2017-Oct-16 07:00N 72°48' W 077°48'7 7.1 060 / 161006.2 -5.5-7.1
2017-Oct-16 06:00N 72°48' W 078°12'9 9.3 340 / 21006.7 -6.5-7.6
2017-Oct-16 05:00N 72°42' W 078°36'5 5.4 070 / 51006.5 -6.3-7.6
2017-Oct-16 04:00N 72°42' W 078°54'9 8.9 130 / 31006.6 -6.4-7.7
2017-Oct-16 03:00N 72°42' W 079°24'7 7.1 130 / 51006.7 -6.1-8.0
2017-Oct-16 02:00N 72°42' W 079°48'8 8.1 330 / 91006.8 -7.5-8.9
2017-Oct-16 01:00N 72°36' W 080°06'7 7.0 330 / 191006.9 -8.1-9.9
2017-Oct-16 00:00N 72°30' W 080°18'0 0.0 350 / 131007.5 -8.1-10.1
2017-Oct-15 23:00N 72°30' W 080°18'0 0.0 330 / 91007.6 -8.0-10.2
2017-Oct-15 22:00N 72°30' W 080°18'9 9.4 330 / 61007.8 -7.8-9.8
2017-Oct-15 21:00N 72°36' W 079°54'9 9.0 350 / 121007.3 -8.1-10.1
2017-Oct-15 20:00N 72°36' W 079°24'9 9.0 320 / 141007.0 -8.0-9.6
2017-Oct-15 19:00N 72°36' W 078°54'6 6.3 280 / 41006.8 -6.6-8.9
2017-Oct-15 18:00N 72°30' W 078°48'0 0.0 290 / 101006.6 -6.7-8.6
2017-Oct-15 17:00N 72°30' W 078°48'6 6.0 320 / 81006.5 -6.3-8.1
2017-Oct-15 16:00N 72°36' W 078°48'6 6.0 280 / 101006.5 -6.2-8.7
2017-Oct-15 15:00N 72°42' W 078°48'6 6.0 270 / 91006.3 -5.9-8.7
2017-Oct-15 14:00N 72°36' W 078°48'6 6.3 280 / 111006.1 -6.1-8.8
2017-Oct-15 13:00N 72°30' W 078°54'9 4.7 280 / 61006.3 -6.1-8.6
2017-Oct-15 11:00N 72°36' W 078°30'7 7.0 280 / 81005.6 -6.0-8.3
2017-Oct-15 10:00N 72°42' W 078°18'4 3.6 220 / 161005.4 -5.3-7.3
2017-Oct-15 09:00N 72°42' W 078°06'0 0.0 180 / 101005.6 -5.5-7.5
2017-Oct-15 08:00N 72°42' W 078°06'0 0.0 190 / 81005.4 -5.3-7.1
2017-Oct-15 07:00N 72°42' W 078°06'2 1.8 190 / 61005.1 -4.9-6.7
2017-Oct-15 06:00N 72°42' W 078°12'0 0.0 170 / 81005.0 -5.5-7.0
2017-Oct-15 05:00N 72°42' W 078°12'0 0.0 180 / 91004.6 -5.4-7.2
2017-Oct-15 04:00N 72°42' W 078°12'2 1.8 220 / 61004.7 -4.1-6.9
2017-Oct-15 03:00N 72°42' W 078°18'0 0.0 130 / 81004.7 -5.1-7.0
2017-Oct-15 02:00N 72°42' W 078°18'0 0.0 170 / 71004.7 -4.8-7.3
2017-Oct-15 01:00N 72°42' W 078°18'0 0.0 160 / 71004.9 -5.0-8.0
2017-Oct-15 00:00N 72°42' W 078°18'0 0.0 130 / 101004.9 -5.5-9.1
2017-Oct-14 23:00N 72°42' W 078°18'4 3.6 230 / 41005.0 -4.6-8.1
2017-Oct-14 22:00N 72°42' W 078°30'5 5.4 070 / 31005.0 -4.7-8.0
2017-Oct-14 21:00N 72°42' W 078°48'9 9.3 070 / 91005.2 -3.8-7.5
2017-Oct-14 20:00N 72°48' W 078°24'9 8.9 070 / 101005.3 -2.8-6.7
2017-Oct-14 19:00N 72°48' W 077°54'2 1.8 070 / 131005.5 -3.8-6.9
2017-Oct-14 18:00N 72°48' W 077°48'6 6.3 080 / 151005.1 -4.6-7.8
2017-Oct-14 17:00N 72°42' W 077°54'6 6.3 190 / 51005.2 -4.8-8.8
2017-Oct-14 16:00N 72°48' W 077°48'0 0.0 100 / 171005.1 -4.7-7.6
2017-Oct-14 15:00N 72°48' W 077°48'0 0.0 070 / 191005.3 -5.0-7.7
2017-Oct-14 14:00N 72°48' W 077°48'7 7.1 080 / 191005.8 -4.9-8.1
2017-Oct-14 13:00N 72°48' W 077°24'0 0.0 090 / 171006.0 -5.2-8.5
2017-Oct-14 12:00N 72°48' W 077°24'2 1.8 070 / 211005.4 -5.4-8.6
2017-Oct-14 11:00N 72°48' W 077°30'4 3.5 080 / 141005.9 -5.1-8.8
2017-Oct-14 10:00N 72°48' W 077°42'4 3.5 070 / 201005.6 -5.5-9.0
2017-Oct-14 09:00N 72°48' W 077°54'7 7.0 060 / 171006.5 -5.3-8.8
2017-Oct-14 08:00N 72°42' W 078°06'0 0.0 1006.8 -7.0-10.6
2017-Oct-14 07:00N 72°42' W 078°06'0 0.0 150 / 81006.9 -7.2-10.3
2017-Oct-14 05:00N 72°42' W 078°06'2 1.8 360 / 11007.1 -4.6-9.0
2017-Oct-14 04:00N 72°42' W 078°12'0 0.0 110 / 31007.5 -6.3-9.0
2017-Oct-14 03:00N 72°42' W 078°12'0 0.0 120 / 11007.6 -5.8-8.2
2017-Oct-14 02:00N 72°42' W 078°12'0 0.0 110 / 41007.9 -6.0-8.4
2017-Oct-14 01:00N 72°42' W 078°12'0 0.0 030 / 31008.1 -5.7-8.4
2017-Oct-14 00:00N 72°42' W 078°12'8 8.1 070 / 51008.3 -6.0-7.7
2017-Oct-13 23:00N 72°36' W 078°30'2 1.8 060 / 71008.3 -6.3-8.2
2017-Oct-13 22:00N 72°36' W 078°36'5 5.4 030 / 71008.6 -5.9-8.1
2017-Oct-13 21:00N 72°36' W 078°54'6 6.0 290 / 71008.7 -6.2-8.3
2017-Oct-13 20:00N 72°30' W 078°54'6 6.0 320 / 71008.9 -5.9-8.0
2017-Oct-13 19:00N 72°36' W 078°54'6 6.0 290 / 61009.1 -6.2-7.3
2017-Oct-13 18:00N 72°42' W 078°54'6 6.0 080 / 11009.4 -4.6-6.6
2017-Oct-13 17:00N 72°36' W 078°54'6 6.0 120 / 51009.6 -6.1-7.4
2017-Oct-13 16:00N 72°30' W 078°54'0 0.0 110 / 71010.0 -5.7-7.4
2017-Oct-13 15:00N 72°30' W 078°54'1212.1 110 / 61010.2 -6.4-8.0
2017-Oct-13 14:00N 72°42' W 079°00'1110.7 080 / 101010.8 -6.7-8.1
2017-Oct-13 13:00N 72°42' W 078°24'1110.7 080 / 41011.3 -7.2-9.3
2017-Oct-13 12:00N 72°48' W 077°54'6 6.3 290 / 51011.6 -6.5-8.5
2017-Oct-13 11:00N 72°42' W 078°00'0 0.0 220 / 31012.0 -6.9-9.2
2017-Oct-13 10:00N 72°42' W 078°00'2 1.8 170 / 21012.3 -7.0-9.3
2017-Oct-13 09:00N 72°42' W 078°06'6 6.3 140 / 11012.8 -7.0-9.2
2017-Oct-13 08:00N 72°48' W 078°00'2 1.8 190 / 31013.0 -7.2-9.0
2017-Oct-13 07:00N 72°48' W 077°54'0 0.0 250 / 31013.3 -7.0-8.9
2017-Oct-13 06:00N 72°48' W 077°54'0 0.0 250 / 31013.5 -7.1-9.1
2017-Oct-13 05:00N 72°48' W 077°54'0 0.0 240 / 41013.9 -7.3-9.4
2017-Oct-13 04:00N 72°48' W 077°54'2 1.8 230 / 61014.0 -7.3-9.3
2017-Oct-13 03:00N 72°48' W 077°48'6 6.3 260 / 81014.4 -7.0-9.8
2017-Oct-13 02:00N 72°42' W 077°54'6 6.3 270 / 21014.8 -6.9-10.1
2017-Oct-13 01:00N 72°48' W 077°48'0 0.0 200 / 41015.2 -7.4-10.1
2017-Oct-13 00:00N 72°48' W 077°48'2 1.8 150 / 71015.3 -7.6-10.0
2017-Oct-12 23:00N 72°48' W 077°42'7 7.1 250 / 111015.2 -7.5-9.7
2017-Oct-12 22:00N 72°48' W 077°18'4 3.5 290 / 111016.0 -6.9-9.2
2017-Oct-12 21:00N 72°48' W 077°30'4 3.5 250 / 81016.2 -7.1-9.1
2017-Oct-12 20:00N 72°48' W 077°42'8 8.0 270 / 61016.5 -7.5-9.3
2017-Oct-12 19:00N 72°42' W 078°00'2 1.8 150 / 101016.7 -8.1-10.8
2017-Oct-12 18:00N 72°42' W 077°54'2 1.8 150 / 81016.7 -8.0-10.8
2017-Oct-12 17:00N 72°42' W 078°00'2 1.8 180 / 31017.0 -7.3-10.1
2017-Oct-12 16:00N 72°42' W 078°06'0 0.0 230 / 11017.1 -7.6-9.8
2017-Oct-12 15:00N 72°42' W 078°06'0 0.0 130 / 71017.2 -8.1-10.7
2017-Oct-12 14:00N 72°42' W 078°06'6 6.3 140 / 161017.0 -7.9-10.9
2017-Oct-12 13:00N 72°48' W 078°00'2 1.8 350 / 31017.1 -7.4-9.7
2017-Oct-12 12:00N 72°48' W 078°06'6 6.0 230 / 11017.1 -6.6-9.7
2017-Oct-12 11:00N 72°42' W 078°06'6 6.3 260 / 11017.2 -6.3-9.4
2017-Oct-12 10:00N 72°48' W 078°00'2 1.8 310 / 81017.1 -7.4-10.2
2017-Oct-12 09:00N 72°48' W 077°54'0 0.0 300 / 71017.1 -7.1-9.9
2017-Oct-12 07:00N 72°48' W 077°54'0 0.0 270 / 91016.6 -7.5-9.3
2017-Oct-12 06:00N 72°48' W 077°54'2 1.8 300 / 91016.4 -7.2-9.3
2017-Oct-12 05:00N 72°48' W 078°00'0 0.0 300 / 91016.2 -7.3-9.3
2017-Oct-12 04:00N 72°48' W 078°00'6 6.3 310 / 101016.0 -7.2-9.0
2017-Oct-12 03:00N 72°42' W 078°06'0 0.0 320 / 71015.9 -7.0-9.5
2017-Oct-12 02:00N 72°42' W 078°06'7 7.1 260 / 31015.8 -6.4-9.3
2017-Oct-12 01:00N 72°42' W 078°30'1212.5 310 / 101015.6 -6.7-9.3
2017-Oct-12 00:00N 72°42' W 079°12'1413.8 340 / 161015.4 -7.9-10.1
2017-Oct-11 23:00N 72°48' W 079°54'8 8.0 010 / 101015.6 -9.3-10.6
2017-Oct-11 22:00N 72°54' W 080°12'1312.5 300 / 111015.3 -9.0-11.3
2017-Oct-11 21:00N 73°06' W 080°24'8 8.0 100 / 111014.8 -7.4-10.3
2017-Oct-11 20:00N 73°12' W 080°42'1212.5 070 / 71014.5 -6.8-9.6
2017-Oct-11 19:00N 73°24' W 080°54'1212.1 160 / 91014.1 -6.5-9.3
2017-Oct-11 18:00N 73°36' W 081°00'6 6.2 100 / 81014.0 -6.4-8.8
2017-Oct-11 17:00N 73°42' W 081°06'7 6.9 280 / 111013.5 -5.4-8.5
2017-Oct-11 16:00N 73°48' W 081°18'9 9.0 260 / 121013.5 -5.1-8.0
2017-Oct-11 15:00N 73°54' W 081°42'1010.0 270 / 101013.4 -3.5-7.6
2017-Oct-11 14:00N 73°54' W 082°18'3 3.3 270 / 131013.0 -5.4-8.4
2017-Oct-11 13:00N 73°54' W 082°30'8 8.3 270 / 131013.1 -5.3-8.0
2017-Oct-11 12:00N 73°54' W 083°00'8 8.3 260 / 131013.0 -5.0-7.8
2017-Oct-11 11:00N 73°54' W 083°30'7 6.7 260 / 101012.8 -5.1-8.7
2017-Oct-11 10:00N 73°54' W 083°54'1010.0 290 / 31012.8 -5.5-7.5
2017-Oct-11 09:00N 73°54' W 084°30'8 8.3 270 / 51012.8 -6.1-9.0
2017-Oct-11 08:00N 73°54' W 085°00'8 8.3 230 / 51012.5 -6.2-8.6
2017-Oct-11 07:00N 73°54' W 085°30'7 6.7 260 / 81012.4 -5.8-7.6
2017-Oct-11 06:00N 73°54' W 085°54'7 6.7 240 / 101012.2 -6.0-7.9
2017-Oct-11 05:00N 73°54' W 086°18'7 6.7 240 / 101012.1 -5.9-7.6
2017-Oct-11 04:00N 73°54' W 086°42'12 5.8 220 / 111012.1 -6.2-8.2
2017-Oct-11 02:00N 73°54' W 087°24'8 7.8 230 / 101011.9 -5.8-7.8
2017-Oct-11 01:00N 73°48' W 087°42'2 1.7 210 / 101011.8 -5.9-7.8
2017-Oct-11 00:00N 73°48' W 087°48'7 6.7 200 / 121011.6 -5.6-7.4
2017-Oct-10 23:00N 73°48' W 088°12'1010.3 210 / 141011.5 -5.6-7.1
2017-Oct-10 22:00N 73°42' W 088°42'8 7.9 210 / 161011.3 -5.4-6.4
2017-Oct-10 21:00N 73°36' W 089°00'6 6.0 200 / 131011.2 -4.8-6.4
2017-Oct-10 20:00N 73°30' W 089°00'9 9.1 210 / 161011.2 -5.0-6.2
2017-Oct-10 19:00N 73°24' W 089°24'1413.8 210 / 111011.1 -4.6-6.4
2017-Oct-10 18:00N 73°12' W 089°48'6 6.2 200 / 91011.0 -3.9-6.2
2017-Oct-10 17:00N 73°06' W 089°54'1312.5 210 / 101011.2 -4.6-6.8
2017-Oct-10 16:00N 72°54' W 090°06'6 6.3 200 / 101011.3 -3.5-7.3
2017-Oct-10 15:00N 72°48' W 090°12'6 6.3 220 / 111011.3 -4.4-7.6
2017-Oct-10 14:00N 72°42' W 090°18'7 7.0 210 / 101011.1 -4.9-7.5
2017-Oct-10 13:00N 72°36' W 090°30'9 9.4 250 / 81011.4 -5.1-7.3
2017-Oct-10 12:00N 72°30' W 090°54'7 7.0 230 / 81011.4 -4.8-7.3
2017-Oct-10 11:00N 72°24' W 091°06'8 8.1 220 / 81011.5 -4.6-7.0
2017-Oct-10 10:00N 72°18' W 091°24'7 7.0 220 / 81011.7 -4.2-6.9
2017-Oct-10 09:00N 72°12' W 091°36'7 7.0 210 / 81011.8 -3.2-6.3
2017-Oct-10 08:00N 72°06' W 091°48'8 8.2 210 / 91012.1 -4.2-6.7
2017-Oct-10 07:00N 72°00' W 092°06'10 9.6 240 / 101012.1 -5.0-6.9
2017-Oct-10 06:00N 71°54' W 092°30'7 7.5 230 / 81012.0 -5.2-7.1
2017-Oct-10 05:00N 71°54' W 092°54'7 7.5 240 / 101012.0 -5.2-7.0
2017-Oct-10 04:00N 71°54' W 093°18'7 7.5 250 / 91012.1 -5.1-7.0
2017-Oct-10 03:00N 71°54' W 093°42'4 3.7 230 / 91012.2 -4.6-6.6
2017-Oct-10 02:00N 71°54' W 093°54'7 7.5 240 / 111012.2 -4.9-6.7
2017-Oct-10 01:00N 71°54' W 094°18'7 7.1 230 / 101012.2 -5.3-6.7
2017-Oct-10 00:00N 72°00' W 094°30'4 3.7 240 / 71012.2 -5.5-6.8
2017-Oct-09 23:00N 72°00' W 094°42'7 7.1 240 / 51012.4 -4.9-5.9
2017-Oct-09 22:00N 71°54' W 094°54'4 3.7 250 / 91012.3 -4.8-5.8
2017-Oct-09 21:00N 71°54' W 095°06'2 1.9 220 / 21012.3 -4.1-6.2
2017-Oct-09 20:00N 71°54' W 095°12'0 0.0 250 / 41012.2 -4.6-5.9
2017-Oct-09 19:00N 71°54' W 095°12'1111.2 240 / 101012.2 -4.7-6.1
2017-Oct-09 18:00N 71°54' W 095°48'7 7.1 240 / 101012.0 -4.7-6.0
2017-Oct-09 17:00N 71°48' W 096°00'0 0.0 140 / 41012.0 -4.7-5.9
2017-Oct-09 16:00N 71°48' W 096°00'2 1.9 250 / 31012.0 -4.7-5.5
2017-Oct-09 15:00N 71°48' W 096°06'0 0.0 250 / 21011.9 -3.0-4.7
2017-Oct-09 14:00N 71°48' W 096°06'8 8.2 230 / 91011.9 -3.7-4.5
2017-Oct-09 13:00N 71°42' W 096°24'1414.2 220 / 101012.0 -4.8-5.3
2017-Oct-09 12:00N 71°30' W 096°48'8 8.3 220 / 81012.2 -4.3-4.9
2017-Oct-09 11:00N 71°24' W 097°06'1515.4 220 / 121012.3 -5.1-5.6
2017-Oct-09 10:00N 71°12' W 097°36'8 8.4 220 / 141012.5 -5.2-5.8
2017-Oct-09 09:00N 71°06' W 097°54'7 7.2 250 / 11012.4 -4.6-5.2
2017-Oct-09 08:00N 71°00' W 098°06'7 7.2 210 / 101012.5 -4.9-5.4
2017-Oct-09 07:00N 70°54' W 098°18'1312.6 210 / 101012.5 -4.8-5.2
2017-Oct-09 06:00N 70°42' W 098°30'1313.4 210 / 91012.7 -4.8-5.3
2017-Oct-09 05:00N 70°30' W 098°48'7 7.2 210 / 101012.8 -4.9-5.3
2017-Oct-09 04:00N 70°24' W 099°00'9 8.5 210 / 91012.9 -4.8-5.3
2017-Oct-09 03:00N 70°18' W 099°18'1212.0 210 / 91012.9 -4.8-5.3
2017-Oct-09 02:00N 70°06' W 099°18'1212.0 190 / 91013.1 -4.9-5.3
2017-Oct-09 01:00N 69°54' W 099°18'2 2.1 260 / 31013.3 -4.6-5.1
2017-Oct-09 00:00N 69°54' W 099°24'6 6.3 200 / 91013.7 -5.0-5.5
2017-Oct-08 23:00N 69°48' W 099°30'   210 / 61013.8 -5.2-5.8

Dump ship's entire track history